Time;durP1;ratioP1;P1;durP2;ratioP2;P2;SDS_P1;SDS_P2;PMS_P1;PMS_P2;Temp;Humidity;BMP_temperature;BMP_pressure;BME280_temperature;BME280_humidity;BME280_pressure;Samples;Min_cycle;Max_cycle;Signal;HPM_P1;HPM_P2
2022/09/21 00:02:25;;;;;;;11.27;5.68;;;;;;;8.75;48.47;97236.84;6100242;29;20127;-72
2022/09/21 00:05:30;;;;;;;6.97;3.03;;;;;;;8.72;48.65;97242.25;6101716;29;20047;-72
2022/09/21 00:08:35;;;;;;;5.30;2.20;;;;;;;8.73;48.31;97230.81;6101314;29;20147;-69
2022/09/21 00:11:38;;;;;;;5.00;1.85;;;;;;;8.79;46.76;97237.53;6101617;29;20052;-71
2022/09/21 00:14:42;;;;;;;3.80;1.40;;;;;;;8.88;45.40;97231.78;6101378;29;20060;-71
2022/09/21 00:17:52;;;;;;;3.45;1.88;;;;;;;8.93;46.43;97239.44;6101657;29;20510;-72
2022/09/21 00:20:53;;;;;;;5.00;2.40;;;;;;;8.81;46.75;97230.44;6101194;29;20055;-69
2022/09/21 00:23:55;;;;;;;4.15;2.47;;;;;;;8.77;47.46;97239.38;6100772;29;20052;-70
2022/09/21 00:26:57;;;;;;;3.40;2.08;;;;;;;8.68;47.82;97240.69;6101601;29;20048;-70
2022/09/21 00:30:02;;;;;;;3.78;2.13;;;;;;;8.64;48.28;97244.41;6101373;29;20052;-69
2022/09/21 00:33:05;;;;;;;3.13;2.03;;;;;;;8.57;48.50;97248.28;6101224;29;20434;-68
2022/09/21 00:36:10;;;;;;;3.30;2.53;;;;;;;8.48;48.82;97244.34;6101123;29;20048;-69
2022/09/21 00:39:11;;;;;;;6.35;2.22;;;;;;;8.40;48.68;97241.25;6101155;29;20067;-69
2022/09/21 00:42:20;;;;;;;3.08;1.83;;;;;;;8.30;49.17;97232.97;6101059;29;20073;-70
2022/09/21 00:45:22;;;;;;;5.80;2.28;;;;;;;8.26;48.98;97241.06;6101178;29;20063;-68
2022/09/21 00:48:31;;;;;;;3.20;2.30;;;;;;;8.23;49.05;97238.59;6101078;29;20040;-68
2022/09/21 00:51:36;;;;;;;5.40;2.65;;;;;;;8.18;49.52;97237.97;6101136;29;20498;-69
2022/09/21 00:54:47;;;;;;;3.97;2.13;;;;;;;8.14;49.82;97233.81;6101225;29;20533;-68
2022/09/21 00:57:56;;;;;;;5.30;2.53;;;;;;;8.08;50.25;97240.22;6104483;29;20052;-69
2022/09/21 01:01:03;;;;;;;5.88;2.25;;;;;;;8.02;50.05;97235.28;6105437;29;20546;-68
2022/09/21 01:04:10;;;;;;;5.05;2.40;;;;;;;8.00;50.49;97237.09;6105257;29;20050;-69
2022/09/21 01:07:17;;;;;;;7.75;2.83;;;;;;;7.94;50.66;97232.16;6104796;29;20138;-69
2022/09/21 01:10:19;;;;;;;7.22;2.50;;;;;;;7.91;50.71;97227.09;6104909;29;20461;-69
2022/09/21 01:13:23;;;;;;;7.13;2.20;;;;;;;7.85;50.92;97234.31;6103586;29;20548;-69
2022/09/21 01:17:01;;;;;;;2.70;2.05;;;;;;;7.87;51.03;97232.47;6103550;29;20134;-69
2022/09/21 01:20:18;;;;;;;5.03;3.33;;;;;;;7.82;51.51;97233.63;6104707;29;20052;-69
2022/09/21 01:23:40;;;;;;;3.67;2.15;;;;;;;7.78;51.71;97232.91;6104834;29;20164;-69
2022/09/21 01:26:53;;;;;;;5.43;2.35;;;;;;;7.72;52.00;97238.44;6104887;29;20072;-69
2022/09/21 01:30:01;;;;;;;5.50;2.45;;;;;;;7.65;52.11;97242.28;6104530;29;20052;-70
2022/09/21 01:33:09;;;;;;;4.00;2.22;;;;;;;7.64;52.10;97238.81;6104696;29;20040;-70
2022/09/21 01:36:18;;;;;;;3.97;2.33;;;;;;;7.59;52.19;97240.78;6104635;29;20089;-69
2022/09/21 01:39:22;;;;;;;5.00;2.15;;;;;;;7.58;51.83;97246.94;6104228;29;20080;-69
2022/09/21 01:42:28;;;;;;;4.40;2.20;;;;;;;7.55;52.08;97252.31;6104578;29;20499;-69
2022/09/21 01:45:39;;;;;;;5.78;3.88;;;;;;;7.55;52.49;97254.94;6103247;29;20052;-68
2022/09/21 01:48:47;;;;;;;8.85;2.55;;;;;;;7.54;52.15;97255.88;6104360;29;20040;-70
2022/09/21 01:51:54;;;;;;;4.82;2.70;;;;;;;7.55;52.41;97241.00;6104098;29;20127;-69
2022/09/21 01:55:04;;;;;;;4.55;2.63;;;;;;;7.61;52.17;97251.19;6103840;29;20585;-70
2022/09/21 01:58:10;;;;;;;5.60;2.50;;;;;;;7.62;52.09;97248.50;6104106;29;20147;-69
2022/09/21 02:01:17;;;;;;;7.45;3.13;;;;;;;7.64;52.13;97249.28;6104141;29;20063;-69
2022/09/21 02:04:19;;;;;;;4.75;2.55;;;;;;;7.71;52.19;97254.22;6103806;29;20079;-69
2022/09/21 02:07:23;;;;;;;6.50;2.70;;;;;;;7.75;51.98;97259.22;6102911;29;20109;-69
2022/09/21 02:10:36;;;;;;;10.38;3.40;;;;;;;7.80;51.94;97252.00;6103670;29;20048;-69
2022/09/21 02:13:42;;;;;;;12.07;3.33;;;;;;;7.82;51.56;97259.81;6103501;29;20403;-69
2022/09/21 02:17:06;;;;;;;6.72;3.22;;;;;;;7.90;51.75;97268.16;6103416;29;20052;-69
2022/09/21 02:20:22;;;;;;;4.18;2.63;;;;;;;7.87;51.66;97257.84;6103588;29;20135;-69
2022/09/21 02:23:52;;;;;;;9.25;3.10;;;;;;;7.89;51.69;97269.06;6103163;29;20052;-69
2022/09/21 02:26:57;;;;;;;7.40;3.10;;;;;;;7.91;51.87;97269.84;6102470;29;20052;-68
2022/09/21 02:30:21;;;;;;;8.82;3.30;;;;;;;7.97;51.77;97269.53;6102681;29;20150;-69
2022/09/21 02:33:28;;;;;;;5.90;2.78;;;;;;;7.97;51.73;97266.94;6102993;29;20139;-69
2022/09/21 02:37:01;;;;;;;10.63;3.60;;;;;;;8.05;51.62;97267.41;6102928;29;20135;-69
2022/09/21 02:40:41;;;;;;;7.78;3.03;;;;;;;8.11;51.24;97271.50;6103020;29;20048;-69
2022/09/21 02:43:51;;;;;;;7.50;3.30;;;;;;;8.14;51.46;97276.59;6102596;29;20418;-70
2022/09/21 02:46:59;;;;;;;8.75;3.38;;;;;;;8.15;51.53;97272.19;6103089;29;20068;-69
2022/09/21 02:50:12;;;;;;;6.40;2.67;;;;;;;8.19;51.38;97271.16;6102621;29;20080;-68
2022/09/21 02:53:19;;;;;;;9.35;3.33;;;;;;;8.29;51.02;97272.38;6102081;29;20131;-68
2022/09/21 02:56:25;;;;;;;7.13;3.33;;;;;;;8.35;50.83;97272.09;6102438;29;20040;-69
2022/09/21 02:59:28;;;;;;;11.27;3.85;;;;;;;8.48;50.65;97275.81;6102425;29;20175;-69
2022/09/21 03:02:38;;;;;;;11.23;4.03;;;;;;;8.59;50.42;97274.44;6101596;29;20058;-69
2022/09/21 03:05:43;;;;;;;12.60;5.35;;;;;;;8.68;50.32;97271.34;6101834;29;20439;-70
2022/09/21 03:08:44;;;;;;;9.15;3.67;;;;;;;8.83;50.03;97267.94;6101934;29;20040;-69
2022/09/21 03:11:46;;;;;;;13.68;4.43;;;;;;;8.97;49.92;97273.31;6101816;29;20055;-69
2022/09/21 03:14:52;;;;;;;11.25;4.93;;;;;;;9.11;49.89;97269.97;6101739;29;20056;-70
2022/09/21 03:17:53;;;;;;;9.90;4.20;;;;;;;9.28;49.25;97270.84;6101778;29;20044;-68
2022/09/21 03:20:57;;;;;;;11.23;5.22;;;;;;;9.41;48.99;97267.50;6101310;29;20056;-69
2022/09/21 03:23:59;;;;;;;8.35;4.40;;;;;;;9.56;48.87;97275.47;6101867;29;20131;-68
2022/09/21 03:27:08;;;;;;;11.05;4.85;;;;;;;9.71;48.53;97285.16;6102144;29;20048;-69
2022/09/21 03:30:09;;;;;;;9.23;4.57;;;;;;;9.86;48.33;97279.03;6102065;29;20055;-68
2022/09/21 03:33:11;;;;;;;13.40;5.22;;;;;;;9.98;47.94;97274.03;6102114;29;20091;-70
2022/09/21 03:36:15;;;;;;;12.55;5.03;;;;;;;10.22;47.34;97285.81;6101579;29;20052;-69
2022/09/21 03:39:17;;;;;;;10.50;5.22;;;;;;;10.37;47.26;97283.28;6101616;29;20040;-70
2022/09/21 03:42:38;;;;;;;16.88;4.72;;;;;;;10.54;47.16;97285.78;6101485;29;20536;-70
2022/09/21 03:45:47;;;;;;;16.65;5.80;;;;;;;10.65;47.18;97278.09;6101678;29;20052;-69
2022/09/21 03:48:51;;;;;;;13.57;5.85;;;;;;;10.81;46.44;97282.44;6101322;29;20063;-68
2022/09/21 03:51:55;;;;;;;15.02;5.70;;;;;;;10.93;46.12;97284.38;6101391;29;20040;-69
2022/09/21 03:54:57;;;;;;;13.32;5.85;;;;;;;11.02;46.13;97286.44;6101336;29;20055;-69
2022/09/21 03:58:01;;;;;;;;;;;;;;;11.07;45.81;97284.38;6102070;29;20048;-70
2022/09/21 04:01:05;;;;;;;11.68;5.35;;;;;;;11.20;44.81;97282.69;6100917;29;20013;-69
2022/09/21 04:04:09;;;;;;;17.33;6.38;;;;;;;11.37;45.09;97280.81;6101331;29;20411;-70
2022/09/21 04:07:11;;;;;;;20.08;7.63;;;;;;;11.51;44.57;97282.59;6101462;29;20056;-69
2022/09/21 04:10:18;;;;;;;13.77;6.07;;;;;;;11.66;43.82;97287.78;6101019;29;20063;-70
2022/09/21 04:13:20;;;;;;;16.65;7.53;;;;;;;11.76;43.42;97287.19;6100018;29;20055;-69
2022/09/21 04:16:26;;;;;;;15.38;6.93;;;;;;;11.90;43.28;97288.03;6101214;29;20048;-70
2022/09/21 04:19:30;;;;;;;14.93;5.80;;;;;;;12.05;42.67;97288.84;6101605;29;20044;-69
2022/09/21 04:22:38;;;;;;;11.00;4.65;;;;;;;12.24;41.69;97279.75;6100861;29;20079;-70
2022/09/21 04:25:40;;;;;;;13.57;4.47;;;;;;;12.43;40.51;97277.59;6100942;29;20490;-69
2022/09/21 04:28:41;;;;;;;11.05;6.75;;;;;;;12.59;40.02;97285.34;6100431;29;20107;-70
2022/09/21 04:31:43;;;;;;;17.52;7.78;;;;;;;12.71;39.96;97279.25;6104032;29;20044;-69
2022/09/21 04:34:47;;;;;;;;;;;;;;;12.80;40.11;97280.44;6105939;29;20048;-68
2022/09/21 04:37:53;;;;;;;12.63;6.28;;;;;;;12.93;39.79;97278.63;6105437;29;20023;-69
2022/09/21 04:40:58;;;;;;;9.60;4.57;;;;;;;13.09;39.34;97285.53;6105489;29;20079;-69
2022/09/21 04:44:00;;;;;;;8.57;3.55;;;;;;;13.24;39.25;97279.19;6105512;29;20407;-70
2022/09/21 04:47:04;;;;;;;9.73;4.30;;;;;;;13.35;39.36;97281.97;6105427;29;20048;-68
2022/09/21 04:50:09;;;;;;;10.60;4.53;;;;;;;13.44;39.29;97275.19;6105471;29;20047;-70
2022/09/21 04:53:15;;;;;;;10.57;4.15;;;;;;;13.52;38.96;97256.16;6105684;29;20156;-69
2022/09/21 04:56:16;;;;;;;9.07;3.15;;;;;;;13.87;39.18;97286.22;6105183;29;20411;-70
2022/09/21 04:59:17;;;;;;;14.23;3.35;;;;;;;14.00;38.95;97265.00;6105137;29;20055;-69
2022/09/21 05:02:19;;;;;;;10.68;3.65;;;;;;;14.18;38.57;97276.06;6104510;29;20631;-69
2022/09/21 05:05:20;;;;;;;12.23;3.20;;;;;;;14.34;38.72;97279.28;6104895;29;20056;-70
2022/09/21 05:11:46;;;;;;;7.50;3.60;;;;;;;14.69;38.46;97285.59;6105030;29;20051;-69
2022/09/21 05:14:51;;;;;;;6.03;3.30;;;;;;;14.86;38.00;97286.97;6104817;29;20055;-70
2022/09/21 05:17:59;;;;;;;7.97;3.47;;;;;;;15.07;37.96;97293.28;6105028;29;20048;-69
2022/09/21 05:21:02;;;;;;;10.13;3.38;;;;;;;15.27;37.40;97292.59;6104922;29;20063;-70
2022/09/21 05:24:04;;;;;;;;;;;;;;;15.46;37.29;97291.19;6103648;29;20060;-70
2022/09/21 05:27:05;;;;;;;9.57;4.50;;;;;;;15.70;36.93;97289.28;6119298;29;19926;-70
2022/09/21 05:30:10;;;;;;;9.95;4.35;;;;;;;17.44;34.59;97283.00;6104762;29;20048;-68
2022/09/21 05:33:18;;;;;;;9.82;3.63;;;;;;;23.47;26.51;97296.88;6103837;29;20048;-68
2022/09/21 05:36:40;;;;;;;10.18;4.35;;;;;;;29.62;20.71;97311.94;6104617;29;20052;-69
2022/09/21 05:39:43;;;;;;;12.93;3.92;;;;;;;34.11;16.77;97321.06;6104367;29;20426;-69
2022/09/21 05:42:47;;;;;;;5.80;3.13;;;;;;;37.42;14.09;97319.25;6103086;29;20048;-69
2022/09/21 05:46:01;;;;;;;10.75;3.33;;;;;;;40.47;11.88;97314.19;6104179;29;20430;-69
2022/09/21 05:49:14;;;;;;;5.97;3.35;;;;;;;43.14;10.32;97321.88;6103927;29;20590;-68
2022/09/21 05:52:18;;;;;;;7.07;2.60;;;;;;;44.91;9.09;97320.97;6104177;29;20096;-68
2022/09/21 05:55:50;;;;;;;13.60;3.22;;;;;;;46.90;7.78;97322.56;6104210;29;20059;-68
2022/09/21 05:59:31;;;;;;;8.18;3.38;;;;;;;48.35;7.01;97321.97;6103823;29;20062;-68
2022/09/21 06:03:27;;;;;;;7.70;2.95;;;;;;;50.32;5.24;97318.34;6103811;29;20494;-68
2022/09/21 06:06:33;;;;;;;6.07;2.88;;;;;;;50.75;6.13;97314.13;6103881;29;20043;-69
2022/09/21 06:09:37;;;;;;;6.15;2.42;;;;;;;51.40;5.70;97307.72;6103615;29;20523;-68
2022/09/21 06:12:42;;;;;;;7.18;2.53;;;;;;;52.11;4.97;97317.34;6103739;29;20051;-69
2022/09/21 06:15:43;;;;;;;9.25;2.88;;;;;;;52.60;4.69;97321.78;6101944;29;20514;-68
2022/09/21 06:18:49;;;;;;;11.73;3.90;;;;;;;53.08;5.00;97320.53;6103762;29;20048;-68
2022/09/21 06:21:54;;;;;;;9.18;3.17;;;;;;;53.72;4.11;97318.31;6103593;29;20523;-68
2022/09/21 06:24:56;;;;;;;6.88;2.42;;;;;;;54.22;4.18;97327.69;6103019;29;20561;-68
2022/09/21 06:28:13;;;;;;;5.90;2.40;;;;;;;54.93;3.17;97322.41;6102409;29;20059;-69
2022/09/21 06:31:19;;;;;;;2.22;0.77;;;;;;;54.26;2.53;97319.31;6103343;29;20048;-68
2022/09/21 06:34:21;;;;;;;3.38;0.70;;;;;;;53.50;1.98;97302.16;6103345;29;20052;-68
2022/09/21 06:37:28;;;;;;;1.83;0.50;;;;;;;52.97;1.73;97297.81;6103281;29;20048;-68
2022/09/21 06:40:34;;;;;;;1.33;0.40;;;;;;;52.57;2.19;97298.03;6102659;29;20388;-68
2022/09/21 06:43:42;;;;;;;1.23;0.30;;;;;;;52.26;1.90;97294.09;6103021;29;20044;-68
2022/09/21 06:46:46;;;;;;;1.40;0.40;;;;;;;52.46;1.42;97295.00;6101853;29;20071;-68
2022/09/21 06:49:48;;;;;;;1.77;0.60;;;;;;;52.30;1.59;97280.13;6101657;29;20199;-68
2022/09/21 06:52:50;;;;;;;0.57;0.32;;;;;;;52.51;1.65;97283.47;6102237;29;20545;-68
2022/09/21 06:56:02;;;;;;;1.48;0.50;;;;;;;53.02;1.48;97262.19;6102652;29;20044;-68
2022/09/21 06:59:07;;;;;;;2.35;0.50;;;;;;;53.80;0.91;97269.41;6102666;29;20096;-68
2022/09/21 07:02:12;;;;;;;1.90;0.60;;;;;;;54.60;1.00;97272.38;6100988;29;20048;-67
2022/09/21 07:05:14;;;;;;;1.48;0.50;;;;;;;55.75;0.77;97268.28;6100612;29;20536;-67
2022/09/21 07:08:22;;;;;;;1.50;0.50;;;;;;;55.25;0.53;97264.84;6102619;29;20043;-67
2022/09/21 07:11:32;;;;;;;1.85;0.25;;;;;;;54.95;0.73;97265.63;6102303;29;20043;-68
2022/09/21 07:14:38;;;;;;;0.30;0.28;;;;;;;54.70;0.97;97257.69;6102119;29;20060;-69
2022/09/21 07:17:41;;;;;;;5.78;0.57;;;;;;;54.22;0.32;97254.47;6102555;29;20519;-68
2022/09/21 07:20:47;;;;;;;0.70;0.32;;;;;;;54.27;0.64;97256.13;6102062;29;20047;-69
2022/09/21 07:23:54;;;;;;;1.42;0.40;;;;;;;53.42;0.76;97261.00;6101984;29;20064;-69
2022/09/21 07:27:02;;;;;;;0.80;0.40;;;;;;;52.83;0.85;97246.06;6101535;29;20058;-69
2022/09/21 07:30:04;;;;;;;1.00;0.60;;;;;;;53.17;1.04;97252.88;6101738;29;20048;-68
2022/09/21 07:33:07;;;;;;;2.42;1.92;;;;;;;54.15;0.91;97248.72;6101406;29;20522;-68
2022/09/21 07:36:10;;;;;;;3.63;2.65;;;;;;;54.83;0.49;97254.63;6099642;29;20060;-68
2022/09/21 07:39:16;;;;;;;1.38;0.88;;;;;;;53.25;0.68;97246.19;6101995;29;20056;-68
2022/09/21 07:42:21;;;;;;;1.02;0.80;;;;;;;53.01;1.17;97238.06;6101571;29;20048;-69
2022/09/21 07:45:24;;;;;;;1.88;0.80;;;;;;;53.44;0.96;97241.78;6101658;29;20052;-68
2022/09/21 07:48:32;;;;;;;1.00;0.50;;;;;;;53.56;1.25;97239.59;6101945;29;20035;-68
2022/09/21 07:51:37;;;;;;;0.65;0.40;;;;;;;54.17;0.62;97240.72;6101281;29;20056;-69
2022/09/21 07:54:39;;;;;;;0.20;0.20;;;;;;;54.24;0.64;97246.44;6101037;29;20056;-68
2022/09/21 08:01:07;;;;;;;1.30;0.82;;;;;;;55.39;0.57;97236.84;6101365;29;20143;-68
2022/09/21 08:04:10;;;;;;;2.78;1.20;;;;;;;55.87;0.23;97239.75;6101460;29;20541;-68
2022/09/21 08:07:16;;;;;;;1.52;0.70;;;;;;;54.97;0.45;97235.09;6105212;29;20470;-68
2022/09/21 08:10:27;;;;;;;0.88;0.47;;;;;;;54.88;0.90;97235.38;6106397;29;20040;-69
2022/09/21 08:13:34;;;;;;;1.92;1.25;;;;;;;54.96;0.95;97229.84;6106364;29;20063;-67
2022/09/21 08:16:40;;;;;;;2.28;1.08;;;;;;;54.83;0.50;97220.78;6106126;29;20044;-68
2022/09/21 08:19:44;;;;;;;0.82;0.73;;;;;;;54.72;0.90;97215.81;6106303;29;20422;-68
2022/09/21 08:22:46;;;;;;;0.82;0.40;;;;;;;55.68;0.43;97225.88;6106029;29;20067;-69
2022/09/21 08:25:50;;;;;;;1.45;0.20;;;;;;;56.62;0.32;97228.28;6105691;29;20056;-68
2022/09/21 08:28:58;;;;;;;0.75;0.28;;;;;;;57.10;0.26;97219.66;6105859;29;20134;-68
2022/09/21 08:32:03;;;;;;;1.13;0.40;;;;;;;57.09;0.13;97207.53;6105608;29;20131;-68
2022/09/21 08:35:05;;;;;;;0.63;0.30;;;;;;;56.63;0.09;97212.97;6105693;29;20193;-68
2022/09/21 08:38:07;;;;;;;1.17;0.35;;;;;;;54.87;0.89;97199.91;6105676;29;20087;-68
2022/09/21 08:41:36;;;;;;;1.13;0.50;;;;;;;55.46;0.83;97214.31;6105352;29;20060;-68
2022/09/21 08:44:49;;;;;;;0.50;0.40;;;;;;;56.17;0.18;97210.56;6105366;29;20075;-69
2022/09/21 08:48:01;;;;;;;3.97;1.50;;;;;;;55.92;0.46;97202.75;6105126;29;20056;-68
2022/09/21 08:51:08;;;;;;;3.97;1.42;;;;;;;55.73;0.50;97206.56;6105293;29;20056;-68
2022/09/21 08:54:34;;;;;;;0.85;0.50;;;;;;;54.60;0.28;97207.56;6105306;29;20048;-68
2022/09/21 08:57:39;;;;;;;1.60;0.40;;;;;;;53.74;0.95;97189.31;6105370;29;20056;-68
2022/09/21 09:00:41;;;;;;;0.95;0.30;;;;;;;54.09;0.80;97199.56;6105170;29;20415;-68
2022/09/21 09:04:11;;;;;;;0.77;0.30;;;;;;;54.50;0.80;97192.16;6105265;29;20052;-68
2022/09/21 09:07:15;;;;;;;2.13;0.43;;;;;;;54.82;0.66;97191.00;6105174;29;20184;-68
2022/09/21 09:11:01;;;;;;;0.60;0.28;;;;;;;55.24;0.32;97195.53;6104756;29;20036;-68
2022/09/21 09:14:32;;;;;;;1.92;0.35;;;;;;;55.70;0.64;97196.06;6096430;29;20052;-68
2022/09/21 09:18:06;;;;;;;1.77;0.60;;;;;;;56.34;0.45;97195.81;6104496;29;20168;-68
2022/09/21 09:21:22;;;;;;;1.95;0.98;;;;;;;56.01;0.53;97197.56;6104624;29;20051;-68
2022/09/21 09:24:50;;;;;;;0.93;0.30;;;;;;;54.34;0.37;97187.91;6104567;29;20060;-68
2022/09/21 09:27:58;;;;;;;0.68;0.22;;;;;;;52.70;1.01;97175.97;6104596;29;20415;-68
2022/09/21 09:31:01;;;;;;;1.00;0.40;;;;;;;51.94;1.32;97172.53;6103628;29;20059;-68
2022/09/21 09:34:25;;;;;;;2.05;0.40;;;;;;;51.91;0.99;97167.66;6104837;29;20083;-70
2022/09/21 09:37:32;;;;;;;1.20;0.38;;;;;;;50.81;1.46;97165.44;6104634;29;20530;-69
2022/09/21 09:41:17;;;;;;;0.32;0.20;;;;;;;51.55;1.04;97151.88;6104383;29;20048;-68
2022/09/21 09:44:49;;;;;;;1.38;0.40;;;;;;;52.55;1.01;97145.09;6101700;29;20052;-68
2022/09/21 09:48:25;;;;;;;1.27;0.40;;;;;;;53.77;1.07;97163.22;6068897;29;20526;-69
2022/09/21 09:51:32;;;;;;;1.15;0.40;;;;;;;53.16;0.51;97155.63;6104068;29;20507;-68
2022/09/21 09:54:37;;;;;;;0.45;0.28;;;;;;;51.46;1.13;97151.25;6103554;29;20032;-68
2022/09/21 09:57:43;;;;;;;0.68;0.32;;;;;;;50.24;1.68;97148.47;6103647;29;20044;-68
2022/09/21 10:00:52;;;;;;;0.95;0.52;;;;;;;48.89;2.07;97127.84;6103809;29;20044;-69
2022/09/21 10:04:13;;;;;;;1.00;0.50;;;;;;;48.13;1.96;97141.69;6103747;29;20039;-69
2022/09/21 10:07:32;;;;;;;0.70;0.40;;;;;;;48.14;2.04;97139.72;6103729;29;20047;-69
2022/09/21 10:10:36;;;;;;;1.23;0.40;;;;;;;49.26;1.97;97137.19;6103706;29;20052;-68
2022/09/21 10:13:47;;;;;;;0.60;0.35;;;;;;;50.06;1.38;97135.91;6103569;29;20063;-69
2022/09/21 10:16:51;;;;;;;1.00;0.50;;;;;;;48.73;1.50;97125.69;6103522;29;20418;-68
2022/09/21 10:20:01;;;;;;;1.65;0.60;;;;;;;46.88;2.24;97124.34;6103533;29;20063;-68
2022/09/21 10:23:05;;;;;;;1.10;0.52;;;;;;;46.20;2.31;97116.41;6102820;29;20528;-68
2022/09/21 10:26:12;;;;;;;2.15;0.70;;;;;;;46.02;2.69;97123.09;6103360;29;20056;-69
2022/09/21 10:29:22;;;;;;;1.55;0.50;;;;;;;46.39;2.49;97113.38;6102703;29;20052;-68
2022/09/21 10:32:28;;;;;;;1.10;0.55;;;;;;;47.04;2.34;97114.34;6103088;29;20119;-67
2022/09/21 10:35:47;;;;;;;1.55;0.70;;;;;;;47.41;2.32;97114.78;6102285;29;20043;-68
2022/09/21 10:38:51;;;;;;;2.63;0.50;;;;;;;47.62;2.44;97120.41;6102638;29;20452;-69
2022/09/21 10:42:03;;;;;;;2.60;1.83;;;;;;;47.51;2.45;97114.41;6102621;29;20044;-69
2022/09/21 10:45:16;;;;;;;3.28;2.03;;;;;;;47.40;2.19;97115.91;6102724;29;20478;-68
2022/09/21 10:48:19;;;;;;;;;;;;;;;48.11;2.32;97104.91;6102845;29;20050;-68
2022/09/21 10:51:29;;;;;;;5.13;2.90;;;;;;;46.38;2.45;97100.59;6102395;29;19919;-68
2022/09/21 10:54:32;;;;;;;3.88;2.20;;;;;;;45.25;2.84;97103.00;6101752;29;20192;-69
2022/09/21 10:57:41;;;;;;;1.05;0.70;;;;;;;45.04;2.80;97100.72;6102596;29;20044;-68
2022/09/21 11:00:50;;;;;;;3.15;1.30;;;;;;;45.39;2.89;97108.44;6102340;29;20126;-69
2022/09/21 11:04:07;;;;;;;2.03;1.50;;;;;;;45.41;2.99;97098.66;6102499;29;20055;-69
2022/09/21 11:07:19;;;;;;;1.30;0.73;;;;;;;44.14;2.96;97091.50;6102351;29;20080;-68
2022/09/21 11:10:25;;;;;;;1.38;0.47;;;;;;;43.40;3.67;97095.19;6102034;29;20048;-68
2022/09/21 11:13:35;;;;;;;2.08;0.80;;;;;;;43.19;3.39;97088.38;6102081;29;20052;-68
2022/09/21 11:16:48;;;;;;;1.13;0.85;;;;;;;42.72;3.69;97085.53;6101016;29;20131;-68
2022/09/21 11:20:17;;;;;;;1.20;0.73;;;;;;;41.60;3.97;97082.38;6100515;29;20366;-69
2022/09/21 11:23:49;;;;;;;1.75;0.98;;;;;;;40.75;4.10;97089.25;6101782;29;20187;-69
2022/09/21 11:27:02;;;;;;;2.70;1.42;;;;;;;40.20;4.11;97076.66;6101620;29;20054;-69
2022/09/21 11:30:15;;;;;;;1.38;0.70;;;;;;;40.00;4.23;97078.41;6101795;29;20047;-69
2022/09/21 11:33:40;;;;;;;2.03;1.05;;;;;;;39.37;4.52;97072.59;6101833;29;20048;-69
2022/09/21 11:36:57;;;;;;;2.17;0.95;;;;;;;38.76;4.74;97060.53;6102071;29;20056;-69
2022/09/21 11:40:28;;;;;;;2.42;1.23;;;;;;;38.32;5.07;97072.03;6101127;29;20048;-69
2022/09/21 11:44:11;;;;;;;1.48;1.02;;;;;;;37.97;4.71;97065.38;6101643;29;20047;-69
2022/09/21 11:47:37;;;;;;;1.50;0.90;;;;;;;37.52;5.57;97066.03;6052334;29;20053;-70
2022/09/21 11:51:07;;;;;;;11.43;8.20;;;;;;;37.04;5.09;97068.75;6056987;29;20045;-68
2022/09/21 11:54:43;;;;;;;2.80;1.52;;;;;;;36.93;5.49;97060.69;6101451;29;20047;-69
2022/09/21 11:58:19;;;;;;;3.17;1.80;;;;;;;36.84;5.49;97069.41;6101522;29;20418;-69
2022/09/21 12:01:35;;;;;;;1.55;1.13;;;;;;;37.03;5.40;97061.63;6066942;29;20051;-69
2022/09/21 12:05:09;;;;;;;2.92;1.40;;;;;;;36.37;5.89;97052.81;6101289;29;20043;-69
2022/09/21 12:08:20;;;;;;;1.00;0.70;;;;;;;35.58;5.84;97051.38;6096037;29;20138;-70
2022/09/21 12:11:42;;;;;;;1.00;0.70;;;;;;;35.20;6.09;97055.81;6101144;29;20048;-68
2022/09/21 12:14:49;;;;;;;25.02;18.98;;;;;;;35.06;6.31;97043.56;6100965;29;20056;-68
2022/09/21 12:18:14;;;;;;;6.10;4.20;;;;;;;35.31;6.30;97052.13;6101373;29;20548;-70
2022/09/21 12:21:30;;;;;;;4.53;1.70;;;;;;;35.09;6.28;97048.53;6100984;29;20044;-68
2022/09/21 12:24:49;;;;;;;2.78;1.30;;;;;;;34.53;6.36;97055.81;6101078;29;20573;-68
2022/09/21 12:27:58;;;;;;;1.75;0.80;;;;;;;33.86;6.47;97046.44;6100477;29;20056;-69
2022/09/21 12:31:08;;;;;;;1.55;0.68;;;;;;;33.09;6.65;97049.44;6100916;29;20134;-69
2022/09/21 12:34:26;;;;;;;2.60;1.02;;;;;;;32.71;7.50;97050.72;6100499;29;20052;-69
2022/09/21 12:37:41;;;;;;;7.78;4.55;;;;;;;32.75;7.30;97051.06;6101075;29;20119;-69
2022/09/21 12:41:14;;;;;;;1.95;1.15;;;;;;;32.71;6.96;97055.34;6101013;29;20044;-68
2022/09/21 12:44:50;;;;;;;1.80;0.60;;;;;;;31.96;7.16;97051.22;6101035;29;20044;-70
2022/09/21 12:48:23;;;;;;;2.30;0.75;;;;;;;31.15;7.89;97052.44;6099834;29;20130;-70
2022/09/21 12:51:33;;;;;;;1.85;0.63;;;;;;;30.63;7.64;97044.53;6100964;29;20056;-69
2022/09/21 12:55:17;;;;;;;4.75;1.17;;;;;;;30.29;8.01;97049.41;6105135;29;20574;-69
2022/09/21 12:58:20;;;;;;;2.72;0.68;;;;;;;29.99;7.97;97046.47;6074129;29;20052;-69
2022/09/21 13:01:40;;;;;;;3.55;1.38;;;;;;;29.68;8.70;97044.53;6105172;29;20063;-69
2022/09/21 13:04:52;;;;;;;5.07;1.52;;;;;;;29.36;8.74;97049.88;6104968;29;20063;-70
2022/09/21 13:08:17;;;;;;;3.75;1.13;;;;;;;29.13;8.65;97044.09;6103671;29;20067;-70
2022/09/21 13:11:24;;;;;;;3.55;1.20;;;;;;;28.61;9.02;97042.06;6104845;29;20051;-69
2022/09/21 13:14:33;;;;;;;3.13;0.88;;;;;;;27.99;9.46;97046.78;6104352;29;20055;-68
2022/09/21 13:17:40;;;;;;;1.85;1.25;;;;;;;27.46;9.78;97048.47;6104517;29;20059;-69
2022/09/21 13:20:45;;;;;;;2.92;1.15;;;;;;;27.07;9.83;97039.16;6104773;29;20044;-70
2022/09/21 13:24:03;;;;;;;4.70;1.23;;;;;;;26.84;10.36;97040.25;6104677;29;20070;-69
2022/09/21 13:27:06;;;;;;;1.25;1.05;;;;;;;26.49;10.60;97033.13;6104151;29;20044;-69
2022/09/21 13:30:31;;;;;;;3.25;1.40;;;;;;;26.18;10.90;97039.72;6104200;29;20160;-70
2022/09/21 13:33:39;;;;;;;2.03;1.08;;;;;;;25.84;11.26;97038.56;6104198;29;20048;-69
2022/09/21 13:36:44;;;;;;;5.82;1.55;;;;;;;25.53;11.41;97036.13;6104029;29;20056;-69
2022/09/21 13:40:00;;;;;;;4.00;2.10;;;;;;;25.27;11.86;97036.63;6104746;29;20426;-69
2022/09/21 13:43:21;;;;;;;3.25;1.20;;;;;;;25.04;12.43;97042.94;6103941;29;20418;-69
2022/09/21 13:46:34;;;;;;;6.82;1.80;;;;;;;24.81;12.33;97036.81;6104262;29;20382;-69
2022/09/21 13:49:50;;;;;;;10.80;3.53;;;;;;;24.54;13.51;97031.06;6103889;29;20048;-69
2022/09/21 13:53:02;;;;;;;26.60;11.50;;;;;;;24.22;15.05;97032.16;6104114;29;20142;-69
2022/09/21 13:56:19;;;;;;;47.45;20.33;;;;;;;23.92;15.48;97037.44;6103911;29;20059;-70
2022/09/21 13:59:26;;;;;;;17.48;6.75;;;;;;;23.79;14.26;97047.94;6103395;29;20056;-69
2022/09/21 14:02:37;;;;;;;39.28;17.10;;;;;;;23.50;16.80;97043.22;6102683;29;20056;-70
2022/09/21 14:05:44;;;;;;;20.13;10.15;;;;;;;23.29;16.70;97058.06;6103618;29;20099;-69
2022/09/21 14:09:17;;;;;;;14.95;5.03;;;;;;;23.19;14.84;97056.63;6103744;29;20151;-69
2022/09/21 14:12:24;;;;;;;6.60;2.90;;;;;;;23.00;14.47;97055.19;6103785;29;20048;-69
2022/09/21 14:15:25;;;;;;;10.20;4.32;;;;;;;22.86;14.66;97052.16;6101759;29;20091;-69
2022/09/21 14:18:36;;;;;;;9.05;4.82;;;;;;;22.74;15.23;97052.72;6103167;29;20040;-69
2022/09/21 14:21:38;;;;;;;34.63;17.13;;;;;;;22.50;18.80;97061.63;6102896;29;20056;-70
2022/09/21 14:24:48;;;;;;;9.65;5.03;;;;;;;22.39;15.83;97060.13;6102874;29;20044;-69
2022/09/21 14:27:51;;;;;;;5.72;3.05;;;;;;;22.25;15.54;97056.31;6103017;29;20383;-69
2022/09/21 14:31:00;;;;;;;6.57;3.10;;;;;;;22.25;15.26;97056.31;6103226;29;20135;-69
2022/09/21 14:34:11;;;;;;;9.07;3.85;;;;;;;22.06;15.53;97056.63;6102884;29;20146;-69
2022/09/21 14:37:35;;;;;;;4.88;2.90;;;;;;;22.13;15.41;97062.97;6101320;29;20203;-70
2022/09/21 14:40:45;;;;;;;7.82;3.45;;;;;;;21.91;15.76;97062.63;6103000;29;20463;-69
2022/09/21 14:43:55;;;;;;;13.85;5.68;;;;;;;21.68;16.14;97061.56;6102732;29;20063;-69
2022/09/21 14:47:15;;;;;;;7.65;4.13;;;;;;;21.60;16.17;97066.91;6102783;29;20044;-69
2022/09/21 14:50:35;;;;;;;14.23;7.55;;;;;;;21.49;17.31;97068.91;6102738;29;20506;-69
2022/09/21 14:54:11;;;;;;;7.40;3.60;;;;;;;21.46;16.27;97069.25;6102744;29;20234;-69
2022/09/21 14:57:33;;;;;;;10.18;4.20;;;;;;;21.63;15.99;97069.28;6102540;29;20573;-70
2022/09/21 15:00:39;;;;;;;10.27;4.33;;;;;;;21.35;16.30;97076.69;6102508;29;20442;-69
2022/09/21 15:03:47;;;;;;;13.35;4.68;;;;;;;21.20;16.36;97082.66;6102637;29;20058;-70
2022/09/21 15:14:32;;;;;;;22.92;10.77;;;;;;;20.55;18.44;97093.84;6090824;29;20060;-70
2022/09/21 15:17:51;;;;;;;29.95;15.50;;;;;;;20.25;20.14;97094.25;6102389;29;20426;-69
2022/09/21 15:21:00;;;;;;;49.53;27.88;;;;;;;19.94;23.24;97091.97;6102145;29;20060;-70